• Join FlightAware (Why Join?)
  • Login
  • US Flag 
Trick or treat! (Boo!!) 
12:01PM EDT


 

Airport Tracker/Info


-or-


 

Live Flight TrackerFlight Track Log ✈ N6345B ✈ 09-May-2013 ✈ KCRG - KDAB

Flight Track Log - Related Links

Times and Time Zones

All times are in EDT time to prevent confusion due to time zone crossing. See the N6345B flight status page for this flight to view local times or setup timezone preferences in your user account.

Time Position Orientation Groundspeed Altitude Reporting Facility
EDT Latitude Longitude Course Direction KTS MPH feet Rate Location/Type
12:14PM 30.3422 -81.4819 108° East 83 96 1,800  Level Jacksonville Center
12:15PM 30.3397 -81.4461 95° East 101 116 2,500 540 Climbing Jacksonville Center
12:16PM 30.3186 -81.4222 136° Southeast 98 113 3,000 480 Climbing Jacksonville Center
12:17PM 30.2994 -81.4033 140° Southeast 97 112 3,600 600 Climbing Jacksonville Center
12:18PM 30.2767 -81.4036 181° South 100 115 4,100 600 Climbing Jacksonville Center
12:19PM 30.2475 -81.4042 181° South 96 110 4,700 480 Climbing Jacksonville Center
12:20PM 30.2203 -81.4044 181° South 100 115 5,200 480 Climbing Jacksonville Center
12:21PM 30.1869 -81.4075 185° South 99 114 5,900 300 Climbing Jacksonville Center
12:22PM 30.1578 -81.4081 181° South 107 123 6,000  Climbing Jacksonville Center
12:23PM 30.1325 -81.4083 181° South 110 127 6,000  Level Jacksonville Center
12:24PM 30.1014 -81.4064 177° South 109 125 6,000  Level Jacksonville Center
12:25PM 30.0658 -81.4069 181° South 112 129 6,000  Level Jacksonville Center
12:26PM 30.0344 -81.3956 163° South 117 135 6,000  Level Jacksonville Center
12:27PM 30.0050 -81.3839 161° South 114 131 6,000  Level Jacksonville Center
12:28PM 29.9756 -81.3725 161° South 118 136 6,000  Level Jacksonville Center
12:29PM 29.9483 -81.3631 163° South 109 125 6,000  Level Jacksonville Center
12:30PM 29.9378 -81.3561 150° Southeast 106 122 6,000  Level Jacksonville Center
12:31PM 29.9106 -81.3469 164° South 100 115 6,000  Level Jacksonville Center
12:32PM 29.8792 -81.3381 166° South 108 124 6,000  Level Jacksonville Center
12:33PM 29.8519 -81.3239 156° South 107 123 6,000  Level Jacksonville Center
12:34PM 29.8225 -81.3125 161° South 107 123 6,000  Level Jacksonville Center
12:35PM 29.7931 -81.3033 165° South 109 125 6,000  Level Jacksonville Center
12:36PM 29.7639 -81.2919 161° South 107 123 6,000 -60 Level Jacksonville Center
12:37PM 29.7386 -81.2828 163° South 104 120 5,900 -300 Descending Jacksonville Center
12:38PM 29.7092 -81.2736 165° South 103 119 5,400 -600 Descending Jacksonville Center
12:39PM 29.6778 -81.2622 163° South 107 123 4,800 -600 Descending Jacksonville Center
12:40PM 29.6486 -81.2556 169° South 108 124 4,200 -420 Descending Jacksonville Center
12:41PM 29.6169 -81.2467 166° South 106 122 4,000 -120 Descending Jacksonville Center
12:42PM 29.5878 -81.2375 165° South 108 124 4,000  Level Jacksonville Center
12:43PM 29.5606 -81.2283 164° South 96 110 4,000 -240 Level Jacksonville Center
12:44PM 29.5333 -81.2242 172° South 101 116 3,600 -360 Descending Jacksonville Center
12:45PM 29.5042 -81.2247 181° South 106 122 3,300 -300 Descending Jacksonville Center
12:46PM 29.4747 -81.2108 158° South 108 124 3,000 -420 Descending Jacksonville Center
12:47PM 29.4658 -81.1822 110° East 106 122 2,500 -540 Descending Jacksonville Center
12:48PM 29.4697 -81.1514 82° East 106 122 2,000 -300 Descending Jacksonville Center
12:49PM 29.4733 -81.1178 83° East 105 121 2,000  Level Jacksonville Center
12:50PM 29.4833 -81.0867 70° East 106 122 2,000  Level Jacksonville Center
12:51PM 29.5025 -81.1031 323° Northwest 102 117 2,000  Level Jacksonville Center
12:52PM 29.4986 -81.1364 262° West 99 114 2,000  Level Jacksonville Center
12:53PM 29.4694 -81.1417 189° South 105 121 2,000  Level Jacksonville Center
12:54PM 29.4425 -81.1422 181° South 103 119 2,000  Level Jacksonville Center
12:55PM 29.4133 -81.1500 193° South 102 117 2,000  Level Jacksonville Center
12:56PM 29.3906 -81.1622 205° Southwest 101 116 2,000  Level Jacksonville Center
12:57PM 29.3717 -81.1506 152° Southeast 99 114 2,000  Level Jacksonville Center
12:58PM 29.3400 -81.1369 159° South 99 114 2,000 -120 Level Jacksonville Center
12:59PM 29.3147 -81.1231 154° Southeast 109 125 1,800 -240 Descending Jacksonville Center
01:00PM 29.2894 -81.1092 154° Southeast 102 117 1,600 -120 Descending Jacksonville Center
01:01PM 29.2664 -81.0978 157° South 86 99 1,600 -180 Level Jacksonville Center
01:02PM 29.2433 -81.0864 157° South 94 108 1,300 -420 Descending Jacksonville Center
01:03PM 29.2161 -81.0725 156° South 102 117 800 -300 Descending Jacksonville Center
01:04PM 29.1931 -81.0706 176° South 89 102 800 -60 Level Jacksonville Center
01:05PM 29.1789 -81.0969 238° Southwest 103 119 700 -120 Descending Jacksonville Center
01:07PM 29.1798 -81.0620 161° South  Level Estimated
01:14PM 29.1799 -81.0581 161° South  Level Estimated